Time;durP1;ratioP1;P1;durP2;ratioP2;P2;SDS_P1;SDS_P2;PMS_P1;PMS_P2;Temp;Humidity;BMP_temperature;BMP_pressure;BME280_temperature;BME280_humidity;BME280_pressure;Samples;Min_cycle;Max_cycle;Signal;HPM_P1;HPM_P2
2023/10/12 00:01:57;;;;;;;43.63;19.95;;;17.20;99.90;;;;;;5049381;28;20025;-89
2023/10/12 00:05:31;;;;;;;30.40;19.05;;;17.80;99.90;;;;;;5056147;28;20103;-90
2023/10/12 00:07:33;;;;;;;36.63;20.40;;;17.50;99.90;;;;;;5025766;28;20559;-89
2023/10/12 00:10:09;;;;;;;35.38;18.70;;;17.60;99.90;;;;;;5036164;28;20470;-89
2023/10/12 00:12:59;;;;;;;38.72;21.77;;;18.40;99.90;;;;;;5036331;28;20025;-90
2023/10/12 00:15:29;;;;;;;36.33;20.63;;;17.40;99.90;;;;;;5036983;28;20080;-88
2023/10/12 00:17:58;;;;;;;40.80;22.30;;;18.60;99.90;;;;;;5040002;28;20025;-89
2023/10/12 00:20:38;;;;;;;42.08;20.13;;;18.50;99.90;;;;;;5056114;28;20033;-89
2023/10/12 00:23:26;;;;;;;39.20;21.60;;;18.30;99.90;;;;;;5039881;28;20217;-89
2023/10/12 00:25:54;;;;;;;41.90;20.15;;;17.80;99.90;;;;;;5034298;28;20057;-89
2023/10/12 00:28:28;;;;;;;31.20;19.80;;;18.50;99.90;;;;;;5036486;28;20026;-89
2023/10/12 00:30:57;;;;;;;40.58;21.98;;;18.30;99.90;;;;;;5035737;28;20029;-87
2023/10/12 00:34:09;;;;;;;45.92;21.95;;;18.00;99.90;;;;;;5050850;22;20048;-89
2023/10/12 00:36:57;;;;;;;39.95;21.05;;;18.00;99.90;;;;;;5024799;28;20040;-87
2023/10/12 00:39:29;;;;;;;39.60;20.73;;;16.90;99.90;;;;;;5035811;28;20068;-88
2023/10/12 00:42:10;;;;;;;40.13;22.95;;;16.90;99.90;;;;;;5034282;28;20087;-88
2023/10/12 00:45:11;;;;;;;31.67;21.83;;;16.90;99.90;;;;;;5035502;28;20037;-88
2023/10/12 00:47:53;;;;;;;39.88;22.02;;;16.90;99.90;;;;;;4991597;28;20035;-88
2023/10/12 00:50:19;;;;;;;42.38;22.38;;;16.60;99.90;;;;;;4993198;28;20038;-89
2023/10/12 00:53:14;;;;;;;39.85;20.98;;;16.80;99.90;;;;;;5008430;28;20030;-89
2023/10/12 00:56:06;;;;;;;41.60;21.52;;;18.20;99.90;;;;;;5010039;28;20112;-88
2023/10/12 00:58:31;;;;;;;39.00;20.17;;;16.80;99.90;;;;;;5092384;22;20540;-89
2023/10/12 01:01:11;;;;;;;37.17;15.98;;;18.10;99.90;;;;;;5035490;28;20101;-90
2023/10/12 01:03:58;;;;;;;29.02;14.85;;;16.80;99.90;;;;;;5066803;22;20057;-89
2023/10/12 01:08:59;;;;;;;35.00;16.40;;;18.10;99.90;;;;;;5045645;28;20029;-89
2023/10/12 01:11:26;;;;;;;30.80;15.75;;;17.70;99.90;;;;;;5048993;28;20057;-88
2023/10/12 01:19:44;;;;;;;31.20;14.07;;;17.20;99.90;;;;;;5056044;28;20055;-89
2023/10/12 01:22:14;;;;;;;30.73;14.50;;;17.70;99.90;;;;;;5055897;28;20029;-88
2023/10/12 01:24:57;;;;;;;31.07;13.80;;;17.60;99.90;;;;;;5054294;28;20075;-88
2023/10/12 01:27:25;;;;;;;33.35;13.70;;;17.90;99.90;;;;;;5048880;28;20029;-90
2023/10/12 01:30:13;;;;;;;38.13;13.15;;;17.80;99.90;;;;;;5055460;28;20021;-91
2023/10/12 01:32:58;;;;;;;34.30;13.27;;;17.30;99.90;;;;;;5030867;28;20461;-89
2023/10/12 01:35:49;;;;;;;33.03;12.23;;;17.60;99.90;;;;;;5053385;28;20036;-88
2023/10/12 01:38:21;;;;;;;25.77;12.48;;;17.10;99.90;;;;;;5045504;28;20057;-89
2023/10/12 01:41:09;;;;;;;40.20;14.18;;;17.80;99.90;;;;;;5052102;28;20029;-89
2023/10/12 01:43:35;;;;;;;27.08;13.68;;;16.50;99.90;;;;;;5049201;28;20033;-90
2023/10/12 01:46:21;;;;;;;39.35;13.30;;;16.90;99.90;;;;;;5053558;28;20025;-89
2023/10/12 01:49:07;;;;;;;26.23;14.05;;;17.80;99.90;;;;;;5043043;28;20017;-88
2023/10/12 01:51:36;;;;;;;36.70;13.68;;;17.50;99.90;;;;;;5033931;28;20068;-90
2023/10/12 01:54:24;;;;;;;26.65;11.07;;;16.50;99.90;;;;;;5046726;28;22159;-89
2023/10/12 01:57:11;;;;;;;34.28;11.68;;;17.00;99.90;;;;;;5054270;28;20036;-90
2023/10/12 01:59:58;;;;;;;23.10;11.13;;;16.50;99.90;;;;;;5053889;28;20483;-88
2023/10/12 02:02:37;;;;;;;34.55;11.35;;;17.80;99.90;;;;;;5034249;28;20287;-90
2023/10/12 02:05:26;;;;;;;22.40;9.43;;;16.80;99.90;;;;;;5053630;28;20029;-88
2023/10/12 02:08:10;;;;;;;27.27;10.05;;;17.60;99.90;;;;;;5054008;28;20033;-91
2023/10/12 02:11:06;;;;;;;23.73;9.82;;;17.30;99.90;;;;;;5034512;28;20029;-91
2023/10/12 02:13:50;;;;;;;25.70;9.73;;;16.50;99.90;;;;;;4980063;28;20396;-90
2023/10/12 02:19:04;;;;;;;20.15;9.23;;;17.40;99.90;;;;;;5040693;28;20036;-90
2023/10/12 02:21:59;;;;;;;26.85;10.57;;;16.50;99.90;;;;;;5049914;28;20143;-91
2023/10/12 02:24:42;;;;;;;25.70;10.82;;;16.40;99.90;;;;;;5053411;28;20033;-90
2023/10/12 02:27:17;;;;;;;26.63;10.40;;;16.30;99.90;;;;;;5053406;28;20184;-90
2023/10/12 02:29:48;;;;;;;26.55;10.10;;;16.40;99.90;;;;;;5053141;28;20025;-91
2023/10/12 02:32:35;;;;;;;;;;;16.20;99.90;;;;;;5019278;28;20116;-91
2023/10/12 02:35:11;;;;;;;22.80;9.48;;;16.40;99.90;;;;;;5068299;22;19921;-91
2023/10/12 02:40:21;;;;;;;19.33;9.55;;;16.40;99.90;;;;;;5058494;22;20071;-90
2023/10/12 02:43:03;;;;;;;20.75;9.25;;;17.60;99.90;;;;;;5053391;28;20506;-91
2023/10/12 02:45:40;;;;;;;21.13;10.18;;;16.50;99.90;;;;;;5050475;28;20484;-92
2023/10/12 02:48:23;;;;;;;19.23;9.05;;;16.50;99.90;;;;;;5056039;22;20041;-89
2023/10/12 02:51:01;;;;;;;19.17;9.75;;;16.50;99.90;;;;;;5045632;28;20033;-91
2023/10/12 02:56:11;;;;;;;24.83;9.57;;;16.50;99.90;;;;;;5053796;28;20507;-90
2023/10/12 02:59:08;;;;;;;25.90;10.07;;;16.30;99.90;;;;;;5053531;28;20029;-91
2023/10/12 03:01:49;;;;;;;19.20;8.85;;;16.70;99.90;;;;;;5018789;28;20037;-91
2023/10/12 03:04:30;;;;;;;16.35;9.38;;;16.60;99.90;;;;;;5053823;28;20075;-91
2023/10/12 03:07:22;;;;;;;22.73;8.98;;;17.40;99.90;;;;;;5043337;28;20087;-91
2023/10/12 03:12:34;;;;;;;20.38;8.73;;;16.60;99.90;;;;;;5071346;22;20053;-91
2023/10/12 03:18:11;;;;;;;18.50;8.30;;;16.60;99.90;;;;;;5052892;28;20054;-89
2023/10/12 03:20:38;;;;;;;17.85;8.30;;;18.10;99.90;;;;;;5053085;28;20025;-90
2023/10/12 03:23:19;;;;;;;16.13;8.73;;;17.90;99.90;;;;;;5052373;28;20055;-90
2023/10/12 03:25:46;;;;;;;22.02;8.43;;;18.00;99.90;;;;;;5053143;28;20380;-91
2023/10/12 03:28:30;;;;;;;18.67;8.88;;;18.00;99.90;;;;;;5000902;28;20041;-92
2023/10/12 03:34:16;;;;;;;16.35;8.40;;;17.40;99.90;;;;;;5054076;28;20166;-90
2023/10/12 03:36:58;;;;;;;17.05;8.00;;;18.10;99.90;;;;;;5057059;28;20021;-90
2023/10/12 03:43:16;;;;;;;11.35;7.65;;;17.80;99.90;;;;;;5035887;28;20056;-92
2023/10/12 03:46:01;;;;;;;14.13;7.65;;;18.00;99.90;;;;;;5057077;28;20032;-92
2023/10/12 03:51:41;;;;;;;15.35;7.50;;;17.80;99.90;;;;;;5056753;28;20024;-90
2023/10/12 03:54:32;;;;;;;12.50;7.43;;;16.60;99.90;;;;;;5057010;28;20031;-90
2023/10/12 03:57:26;;;;;;;;;;;17.10;99.90;;;;;;5057770;28;20138;-90
2023/10/12 04:05:54;;;;;;;12.15;6.85;;;16.80;99.90;;;;;;5057548;28;20063;-91
2023/10/12 04:14:10;;;;;;;13.38;7.80;;;17.90;99.90;;;;;;5063142;28;20040;-90
2023/10/12 04:16:45;;;;;;;11.35;7.70;;;16.80;99.90;;;;;;5043179;28;20041;-90
2023/10/12 04:19:20;;;;;;;14.73;7.80;;;18.10;99.90;;;;;;5061022;28;20044;-91
2023/10/12 04:22:24;;;;;;;16.83;7.85;;;18.00;99.90;;;;;;5059166;28;20021;-91
2023/10/12 04:25:12;;;;;;;19.08;8.70;;;17.90;99.90;;;;;;5042322;28;20041;-91
2023/10/12 04:33:18;;;;;;;21.10;8.55;;;17.80;99.90;;;;;;5047142;28;20111;-89
2023/10/12 04:44:03;;;;;;;13.45;8.35;;;17.20;99.90;;;;;;5055193;28;20509;-91
2023/10/12 04:46:38;;;;;;;17.60;9.20;;;17.00;99.90;;;;;;5054844;28;20385;-90
2023/10/12 04:51:49;;;;;;;18.80;10.02;;;16.90;99.90;;;;;;5055314;28;20524;-90
2023/10/12 04:54:23;;;;;;;17.88;9.32;;;16.70;99.90;;;;;;5058538;28;20036;-91
2023/10/12 04:56:56;;;;;;;15.63;8.18;;;16.90;99.90;;;;;;5056745;28;20067;-91
2023/10/12 05:05:15;;;;;;;11.80;6.45;;;17.80;99.90;;;;;;4990150;28;20100;-90
2023/10/12 05:10:48;;;;;;;12.25;7.40;;;17.40;99.90;;;;;;5042852;28;20063;-90
2023/10/12 05:13:19;;;;;;;15.35;6.75;;;16.80;99.90;;;;;;5043943;28;20362;-91
2023/10/12 05:16:06;;;;;;;9.43;6.38;;;17.20;99.90;;;;;;5055217;28;20044;-90
2023/10/12 05:18:33;;;;;;;11.98;7.10;;;16.40;99.90;;;;;;5055306;28;20025;-90
2023/10/12 05:21:00;;;;;;;10.73;6.75;;;17.90;99.90;;;;;;5055034;28;20021;-89
2023/10/12 05:23:31;;;;;;;9.10;6.22;;;17.50;99.90;;;;;;5055165;28;20047;-90
2023/10/12 05:28:27;;;;;;;15.68;7.82;;;17.40;99.90;;;;;;5055355;28;20056;-91
2023/10/12 05:36:23;;;;;;;2.35;2.15;;;17.50;99.90;;;;;;5056172;28;20104;-88
2023/10/12 05:38:49;;;;;;;2.60;2.40;;;16.30;99.90;;;;;;5054607;28;20051;-92
2023/10/12 05:41:34;;;;;;;2.38;2.15;;;16.20;99.90;;;;;;5055605;28;20033;-90
2023/10/12 05:44:03;;;;;;;2.50;2.30;;;16.20;99.90;;;;;;5053299;28;20060;-91
2023/10/12 05:46:32;;;;;;;2.22;1.88;;;16.10;99.90;;;;;;5054987;28;20024;-89
2023/10/12 05:48:59;;;;;;;2.17;2.05;;;16.10;99.90;;;;;;5054745;28;20484;-89
2023/10/12 05:51:37;;;;;;;2.03;1.90;;;16.00;99.90;;;;;;5048433;28;20029;-88
2023/10/12 05:54:03;;;;;;;2.22;2.10;;;15.00;99.90;;;;;;5054245;28;20104;-89
2023/10/12 05:56:34;;;;;;;2.30;2.03;;;15.80;99.90;;;;;;5054505;28;20076;-90
2023/10/12 05:59:00;;;;;;;2.50;2.30;;;15.70;99.90;;;;;;5054661;28;20044;-90
2023/10/12 06:01:32;;;;;;;2.65;2.00;;;16.20;99.90;;;;;;5054596;28;20074;-89
2023/10/12 06:03:58;;;;;;;2.45;2.25;;;15.60;99.90;;;;;;5055019;28;20044;-89
2023/10/12 06:06:24;;;;;;;2.22;2.03;;;15.60;99.90;;;;;;5054112;28;20017;-90
2023/10/12 06:08:55;;;;;;;2.85;2.38;;;15.50;99.90;;;;;;5058168;28;20040;-89
2023/10/12 06:11:29;;;;;;;3.60;3.30;;;15.50;99.90;;;;;;5053487;28;20374;-89
2023/10/12 06:14:14;;;;;;;2.70;2.50;;;16.50;99.90;;;;;;5053289;28;20480;-89
2023/10/12 06:16:41;;;;;;;2.75;2.55;;;16.70;99.90;;;;;;5054153;28;20437;-89
2023/10/12 06:19:29;;;;;;;3.83;2.72;;;16.10;99.90;;;;;;5036763;28;20480;-90
2023/10/12 06:24:44;;;;;;;3.13;2.88;;;15.40;99.90;;;;;;5052931;28;20047;-90
2023/10/12 06:27:25;;;;;;;;;;;16.60;99.90;;;;;;5054327;28;20025;-90
2023/10/12 06:29:54;;;;;;;;;;;15.40;99.90;;;;;;5053692;28;19908;-90
2023/10/12 06:45:52;;;;;;;1.85;1.00;;;15.40;99.90;;;;;;5042318;28;20032;-92
2023/10/12 06:51:11;;;;;;;3.78;1.00;;;15.10;99.90;;;;;;5048481;28;20106;-89
2023/10/12 06:53:37;;;;;;;3.15;1.10;;;16.20;99.90;;;;;;5053803;28;20033;-88
2023/10/12 06:56:24;;;;;;;1.48;0.95;;;15.40;99.90;;;;;;5053219;28;20024;-90
2023/10/12 06:59:09;;;;;;;6.18;1.35;;;15.00;99.90;;;;;;5047569;28;20094;-89
2023/10/12 07:07:00;;;;;;;2.08;1.38;;;15.00;99.90;;;;;;5014283;28;20203;-89
2023/10/12 07:12:13;;;;;;;1.52;1.10;;;15.10;99.90;;;;;;5057919;28;20051;-92
2023/10/12 07:14:55;;;;;;;3.25;1.30;;;16.30;99.90;;;;;;5066742;28;20041;-94
2023/10/12 07:20:25;;;;;;;2.33;1.73;;;15.90;99.90;;;;;;5056314;28;20036;-92
2023/10/12 07:23:05;;;;;;;6.55;1.40;;;15.10;99.90;;;;;;5065068;28;20020;-90
2023/10/12 07:25:35;;;;;;;3.97;1.02;;;14.80;99.90;;;;;;5074044;28;20079;-92
2023/10/12 07:28:02;;;;;;;4.40;1.02;;;15.00;99.90;;;;;;5072949;28;20090;-91
2023/10/12 07:30:36;;;;;;;1.90;1.20;;;15.00;99.90;;;;;;5074241;28;20025;-92
2023/10/12 07:33:12;;;;;;;5.03;0.88;;;15.00;99.90;;;;;;5056091;28;20048;-87
2023/10/12 07:35:42;;;;;;;2.55;1.25;;;15.00;99.90;;;;;;5054087;28;20022;-94
2023/10/12 07:38:40;;;;;;;2.38;1.10;;;16.20;99.90;;;;;;5057997;28;20029;-92
2023/10/12 07:41:41;;;;;;;2.63;1.20;;;15.50;99.90;;;;;;4989365;28;20030;-91
2023/10/12 07:44:09;;;;;;;4.18;1.55;;;16.10;99.90;;;;;;5029907;28;20073;-91
2023/10/12 07:46:44;;;;;;;2.20;1.08;;;15.00;99.90;;;;;;5034557;28;20029;-88
2023/10/12 07:49:25;;;;;;;2.35;1.20;;;15.00;99.90;;;;;;5031768;28;20248;-88
2023/10/12 07:52:04;;;;;;;2.03;1.50;;;15.20;99.90;;;;;;5019951;28;20047;-86
2023/10/12 07:57:30;;;;;;;2.50;1.75;;;15.10;99.90;;;;;;5053137;28;20461;-93
2023/10/12 08:06:15;;;;;;;2.90;2.05;;;15.10;99.90;;;;;;5051433;28;20033;-95
2023/10/12 08:08:45;;;;;;;3.08;2.08;;;15.10;99.90;;;;;;4993523;28;20033;-92
2023/10/12 08:11:31;;;;;;;5.00;2.55;;;16.40;99.90;;;;;;5058803;28;20045;-93
2023/10/12 08:14:19;;;;;;;10.18;2.85;;;15.20;99.90;;;;;;5035630;28;20025;-90
2023/10/12 08:17:24;;;;;;;9.57;2.58;;;16.20;99.90;;;;;;5042474;28;20045;-90
2023/10/12 08:19:39;;;;;;;8.85;2.20;;;15.20;99.90;;;;;;5044751;28;20398;-91
2023/10/12 08:22:09;;;;;;;10.57;2.13;;;15.20;99.90;;;;;;5043916;28;20064;-90
2023/10/12 08:24:36;;;;;;;5.93;2.25;;;15.40;99.90;;;;;;5047953;28;20029;-91
2023/10/12 08:27:06;;;;;;;4.85;2.38;;;15.50;99.90;;;;;;5045551;28;20044;-88
2023/10/12 08:37:18;;;;;;;5.72;2.35;;;15.40;99.90;;;;;;5034325;28;20036;-88
2023/10/12 08:45:09;;;;;;;2.85;2.17;;;15.60;99.90;;;;;;5036506;28;20389;-91
2023/10/12 08:52:50;;;;;;;1.52;1.40;;;15.60;99.90;;;;;;5035543;28;20033;-90
2023/10/12 08:55:19;;;;;;;1.63;1.33;;;15.60;99.90;;;;;;5035630;28;20032;-90
2023/10/12 08:58:03;;;;;;;1.30;1.25;;;15.70;99.90;;;;;;5035796;28;20433;-90
2023/10/12 09:03:00;;;;;;;2.80;1.33;;;15.70;99.90;;;;;;5041586;28;20064;-90
2023/10/12 09:05:30;;;;;;;2.45;1.80;;;15.90;99.90;;;;;;5036139;28;20022;-90
2023/10/12 09:13:24;;;;;;;;;;;16.30;99.90;;;;;;5053340;28;20183;-90
2023/10/12 09:16:14;;;;;;;1.55;1.45;;;15.90;99.90;;;;;;5055806;28;19916;-90
2023/10/12 09:18:46;;;;;;;2.42;2.15;;;15.80;99.90;;;;;;5055589;28;20036;-89
2023/10/12 09:21:23;;;;;;;2.05;1.75;;;17.10;99.90;;;;;;5051525;28;20111;-86
2023/10/12 09:24:14;;;;;;;2.20;2.00;;;16.40;99.90;;;;;;5050291;28;20088;-88
2023/10/12 09:26:55;;;;;;;2.17;1.98;;;15.60;99.90;;;;;;5049543;28;20421;-87
2023/10/12 09:29:23;;;;;;;2.35;2.15;;;15.80;99.90;;;;;;5052637;28;20028;-87
2023/10/12 09:32:12;;;;;;;5.32;2.30;;;15.90;99.90;;;;;;5048398;28;20033;-85
2023/10/12 09:37:43;;;;;;;2.60;2.40;;;15.90;99.90;;;;;;5053120;28;20032;-86
2023/10/12 09:40:24;;;;;;;4.03;2.75;;;15.90;99.90;;;;;;5053253;28;20481;-78
2023/10/12 09:42:54;;;;;;;13.27;3.67;;;16.70;99.90;;;;;;5055803;28;20052;-89
2023/10/12 09:45:24;;;;;;;2.92;2.63;;;16.50;99.90;;;;;;5053839;28;20115;-90
2023/10/12 09:51:03;;;;;;;3.22;2.92;;;16.10;99.90;;;;;;5055439;28;20071;-89
2023/10/12 09:53:58;;;;;;;26.95;5.50;;;17.20;99.90;;;;;;5056248;28;20027;-93
2023/10/12 09:56:44;;;;;;;3.83;2.65;;;16.10;99.90;;;;;;5055242;28;20033;-88
2023/10/12 09:59:20;;;;;;;56.97;10.50;;;15.80;99.90;;;;;;5053334;28;20037;-88
2023/10/12 10:01:50;;;;;;;6.03;3.60;;;16.60;99.90;;;;;;5065719;28;20024;-92
2023/10/12 10:04:35;;;;;;;;;;;16.90;99.90;;;;;;5066972;28;20051;-94
2023/10/12 10:07:26;;;;;;;3.45;3.15;;;15.90;99.90;;;;;;5038738;28;19967;-93
2023/10/12 10:13:46;;;;;;;3.75;2.58;;;16.30;99.90;;;;;;5078375;28;20052;-93
2023/10/12 10:24:03;;;;;;;4.30;3.90;;;16.30;99.90;;;;;;5132596;22;20394;-94
2023/10/12 10:26:47;;;;;;;4.65;4.25;;;17.10;99.90;;;;;;5039299;28;20049;-92
2023/10/12 10:29:45;;;;;;;4.15;3.85;;;16.30;99.90;;;;;;5040312;28;20033;-95
2023/10/12 10:32:39;;;;;;;5.18;4.68;;;16.30;99.90;;;;;;5037681;28;20025;-95
2023/10/12 10:35:22;;;;;;;5.03;4.47;;;16.30;99.90;;;;;;5101867;22;20038;-94
2023/10/12 10:37:58;;;;;;;4.95;4.47;;;16.30;99.90;;;;;;5021537;28;20125;-93
2023/10/12 10:40:47;;;;;;;5.95;5.35;;;16.40;99.90;;;;;;5024617;28;20040;-94
2023/10/12 10:46:13;;;;;;;5.70;5.25;;;16.40;99.90;;;;;;5225777;23;20091;-92
2023/10/12 10:48:39;;;;;;;;;;;16.40;99.90;;;;;;5066833;28;20036;-84
2023/10/12 10:51:12;;;;;;;5.50;5.10;;;16.40;99.90;;;;;;5068588;28;19926;-90
2023/10/12 10:53:41;;;;;;;7.70;6.90;;;17.00;99.90;;;;;;5071485;28;20551;-92
2023/10/12 10:56:41;;;;;;;8.35;6.57;;;17.40;99.90;;;;;;5063331;28;20051;-90
2023/10/12 10:59:19;;;;;;;9.80;6.45;;;16.40;99.90;;;;;;5077012;28;20043;-89
2023/10/12 11:01:48;;;;;;;7.03;6.38;;;16.30;99.90;;;;;;5063195;28;20477;-90
2023/10/12 11:04:42;;;;;;;8.10;7.40;;;17.70;99.90;;;;;;5064135;28;20033;-91
2023/10/12 11:07:31;;;;;;;6.78;6.07;;;16.50;99.90;;;;;;5063671;28;20021;-91
2023/10/12 11:12:31;;;;;;;9.98;7.65;;;17.30;99.90;;;;;;5069113;28;20021;-90
2023/10/12 11:15:09;;;;;;;8.57;7.68;;;17.00;99.90;;;;;;5064724;28;20060;-91
2023/10/12 11:17:55;;;;;;;9.27;8.25;;;16.50;99.90;;;;;;5067139;28;20104;-91
2023/10/12 11:20:35;;;;;;;12.02;8.75;;;17.40;99.90;;;;;;5062616;28;20488;-92
2023/10/12 11:23:19;;;;;;;11.07;9.90;;;17.40;99.90;;;;;;5061757;28;20055;-92
2023/10/12 11:25:45;;;;;;;12.15;10.90;;;15.70;99.90;;;;;;5070088;28;20062;-92
2023/10/12 11:28:41;;;;;;;12.95;9.65;;;17.90;99.90;;;;;;5061257;28;20029;-91
2023/10/12 11:31:31;;;;;;;14.20;11.07;;;16.80;99.90;;;;;;5072352;28;20033;-92
2023/10/12 11:33:59;;;;;;;14.38;11.15;;;17.90;99.90;;;;;;5074410;28;20021;-92
2023/10/12 11:36:26;;;;;;;15.93;11.32;;;17.20;99.90;;;;;;5065593;28;20051;-93
2023/10/12 11:39:16;;;;;;;15.63;11.18;;;17.80;99.90;;;;;;5063160;28;20025;-92
2023/10/12 11:42:05;;;;;;;13.63;11.77;;;16.80;99.90;;;;;;5072307;28;20487;-92
2023/10/12 11:44:36;;;;;;;29.10;17.80;;;16.50;99.90;;;;;;5069037;28;20059;-92
2023/10/12 11:47:21;;;;;;;29.38;18.08;;;16.80;99.90;;;;;;5071360;28;20037;-93
2023/10/12 11:49:50;;;;;;;32.08;17.02;;;16.90;99.90;;;;;;5063631;28;20025;-94
2023/10/12 11:55:20;;;;;;;24.48;18.55;;;18.10;99.90;;;;;;4992267;28;20050;-92
2023/10/12 11:57:48;;;;;;;37.92;20.83;;;17.80;99.90;;;;;;4985587;28;20086;-92
2023/10/12 12:00:39;;;;;;;33.53;20.58;;;18.00;99.90;;;;;;4995655;28;20054;-88
2023/10/12 12:03:22;;;;;;;29.88;20.20;;;17.00;99.90;;;;;;4992818;28;20054;-89
2023/10/12 12:05:51;;;;;;;33.83;20.27;;;18.00;99.90;;;;;;5012962;28;20578;-89
2023/10/12 12:08:32;;;;;;;29.48;20.60;;;17.40;99.90;;;;;;5068556;28;20032;-91
2023/10/12 12:13:35;;;;;;;35.22;20.83;;;16.90;99.90;;;;;;5570010;22;20061;-95
2023/10/12 12:16:20;;;;;;;27.58;18.88;;;18.00;99.90;;;;;;5061129;28;20067;-92
2023/10/12 12:18:49;;;;;;;25.42;19.02;;;17.40;99.90;;;;;;5053192;28;20495;-87
2023/10/12 12:21:17;;;;;;;29.92;20.52;;;18.00;99.90;;;;;;5052885;28;20029;-88
2023/10/12 12:23:48;;;;;;;25.42;18.60;;;17.00;99.90;;;;;;5052151;28;20041;-88
2023/10/12 12:26:18;;;;;;;28.17;19.75;;;17.60;99.90;;;;;;5050625;28;20032;-87
2023/10/12 12:28:44;;;;;;;32.80;20.10;;;17.80;99.90;;;;;;5052171;28;20039;-87
2023/10/12 12:31:13;;;;;;;26.40;17.88;;;17.00;99.90;;;;;;5051855;28;20033;-87
2023/10/12 12:33:43;;;;;;;31.45;17.80;;;17.00;99.90;;;;;;5053023;28;20044;-91
2023/10/12 12:36:43;;;;;;;21.98;17.33;;;17.00;99.90;;;;;;5048483;28;20021;-89
2023/10/12 12:39:09;;;;;;;28.90;19.02;;;17.00;99.90;;;;;;5048734;28;20071;-89
2023/10/12 12:41:34;;;;;;;36.33;19.20;;;17.00;99.90;;;;;;5054456;28;20028;-90
2023/10/12 12:44:00;;;;;;;30.38;17.90;;;17.00;99.90;;;;;;5054656;28;20033;-89
2023/10/12 12:46:26;;;;;;;28.25;18.00;;;17.30;99.90;;;;;;5052200;28;20491;-89
2023/10/12 12:48:52;;;;;;;23.92;18.23;;;17.00;99.90;;;;;;5054103;28;20033;-90
2023/10/12 12:51:20;;;;;;;23.90;18.75;;;17.10;99.90;;;;;;5053060;28;20241;-89
2023/10/12 12:53:47;;;;;;;24.15;16.75;;;17.00;99.90;;;;;;5053458;28;20029;-88
2023/10/12 12:56:30;;;;;;;25.88;19.08;;;16.90;99.90;;;;;;5055239;28;20021;-88
2023/10/12 12:58:56;;;;;;;31.85;18.48;;;16.90;99.90;;;;;;5054049;28;20056;-89
2023/10/12 13:01:26;;;;;;;25.95;17.63;;;17.10;99.90;;;;;;5052124;28;20453;-90
2023/10/12 13:03:52;;;;;;;24.35;16.38;;;17.10;99.90;;;;;;5050017;28;20049;-90
2023/10/12 13:06:19;;;;;;;24.95;16.23;;;17.40;99.90;;;;;;5050901;28;20029;-88
2023/10/12 13:08:45;;;;;;;28.67;15.43;;;16.90;99.90;;;;;;5054318;28;20029;-89
2023/10/12 13:11:11;;;;;;;21.98;15.57;;;17.00;99.90;;;;;;5054345;28;20013;-90
2023/10/12 13:13:39;;;;;;;25.45;15.65;;;17.00;99.90;;;;;;5054138;28;20048;-89
2023/10/12 13:16:05;;;;;;;20.67;15.90;;;17.20;99.90;;;;;;5050398;28;20028;-88
2023/10/12 13:18:49;;;;;;;25.67;16.33;;;16.90;99.90;;;;;;5054161;28;20029;-91
2023/10/12 13:21:16;;;;;;;24.35;16.40;;;18.00;99.90;;;;;;5056388;28;20036;-95
2023/10/12 13:23:46;;;;;;;27.00;16.70;;;18.20;99.90;;;;;;5058155;28;20045;-95
2023/10/12 13:26:30;;;;;;;;;;;16.20;99.90;;;;;;5068529;28;20037;-94
2023/10/12 13:28:57;;;;;;;28.50;17.27;;;16.80;99.90;;;;;;5059047;28;19911;-93
2023/10/12 13:31:23;;;;;;;29.48;18.27;;;18.10;99.90;;;;;;5054894;28;20071;-91
2023/10/12 13:34:13;;;;;;;29.65;17.83;;;17.60;99.90;;;;;;5052568;28;20036;-90
2023/10/12 13:36:39;;;;;;;23.80;16.38;;;16.80;99.90;;;;;;5049456;28;20037;-91
2023/10/12 13:39:25;;;;;;;22.38;16.45;;;16.70;99.90;;;;;;5056891;28;20780;-92
2023/10/12 13:42:11;;;;;;;20.73;15.55;;;16.70;99.90;;;;;;5064519;28;20029;-91
2023/10/12 13:44:39;;;;;;;22.55;16.85;;;16.90;99.90;;;;;;5067698;28;20049;-92
2023/10/12 13:47:07;;;;;;;21.02;16.90;;;18.00;99.90;;;;;;5067106;28;20052;-91
2023/10/12 13:49:44;;;;;;;24.25;17.50;;;17.30;99.90;;;;;;5053777;28;20159;-93
2023/10/12 13:52:10;;;;;;;23.38;17.40;;;17.90;99.90;;;;;;5055387;28;20049;-92
2023/10/12 13:54:36;;;;;;;22.70;17.23;;;18.00;99.90;;;;;;5061179;28;20020;-95
2023/10/12 13:57:02;;;;;;;24.17;18.17;;;17.30;99.90;;;;;;5056421;28;20071;-92
2023/10/12 13:59:49;;;;;;;26.55;19.05;;;17.10;99.90;;;;;;5056289;28;20460;-92
2023/10/12 14:02:14;;;;;;;25.88;17.83;;;17.40;99.90;;;;;;5051855;28;20044;-94
2023/10/12 14:04:40;;;;;;;23.80;17.35;;;16.50;99.90;;;;;;5056678;28;20029;-91
2023/10/12 14:07:27;;;;;;;24.08;18.90;;;18.00;99.90;;;;;;5055008;28;20081;-94
2023/10/12 14:10:06;;;;;;;20.88;18.50;;;16.70;99.90;;;;;;5055552;28;20036;-93
2023/10/12 14:12:33;;;;;;;21.88;16.70;;;16.80;99.90;;;;;;5146112;22;20053;-94
2023/10/12 14:15:14;;;;;;;24.77;17.38;;;18.00;99.90;;;;;;5036225;28;20033;-92
2023/10/12 14:17:40;;;;;;;25.38;17.50;;;17.00;99.90;;;;;;5039130;28;20042;-92
2023/10/12 14:20:08;;;;;;;21.92;17.98;;;15.90;99.90;;;;;;5049133;28;20101;-94
2023/10/12 14:22:58;;;;;;;27.67;18.35;;;16.80;99.90;;;;;;5044192;28;20517;-92
2023/10/12 14:25:28;;;;;;;21.08;16.75;;;16.80;99.90;;;;;;5325531;22;20057;-90
2023/10/12 14:28:00;;;;;;;25.13;16.20;;;16.80;99.90;;;;;;5061810;22;20093;-92
2023/10/12 14:30:42;;;;;;;18.30;16.45;;;18.20;99.90;;;;;;5055942;28;20044;-93
2023/10/12 14:33:08;;;;;;;21.52;15.32;;;17.30;99.90;;;;;;5068484;28;20391;-94
2023/10/12 14:35:39;;;;;;;18.92;15.05;;;17.80;99.90;;;;;;5174968;22;20057;-93
2023/10/12 14:38:14;;;;;;;18.33;13.48;;;16.80;99.90;;;;;;5056148;28;20112;-93
2023/10/12 14:40:42;;;;;;;19.45;14.75;;;16.90;99.90;;;;;;5057948;28;20041;-90
2023/10/12 14:43:25;;;;;;;21.52;14.95;;;17.90;99.90;;;;;;5052052;28;20112;-93
2023/10/12 14:46:03;;;;;;;17.92;16.02;;;17.40;99.90;;;;;;5047316;28;20028;-91
2023/10/12 14:48:29;;;;;;;23.17;16.17;;;17.40;99.90;;;;;;5053346;28;20025;-94
2023/10/12 14:51:17;;;;;;;23.15;14.85;;;16.90;99.90;;;;;;5058854;28;20021;-90
2023/10/12 14:53:47;;;;;;;16.13;14.48;;;18.20;99.90;;;;;;5052953;28;20511;-90
2023/10/12 14:56:14;;;;;;;16.45;14.75;;;17.00;99.90;;;;;;5052922;28;20141;-92
2023/10/12 14:58:40;;;;;;;17.90;14.68;;;17.40;99.90;;;;;;5053339;28;20112;-93
2023/10/12 15:01:17;;;;;;;17.15;14.73;;;17.50;99.90;;;;;;5053413;28;20039;-90
2023/10/12 15:03:45;;;;;;;19.05;14.95;;;17.00;99.90;;;;;;5055594;28;20040;-91
2023/10/12 15:06:14;;;;;;;20.25;15.85;;;17.20;99.90;;;;;;5056366;28;20025;-93
2023/10/12 15:08:42;;;;;;;18.88;15.95;;;18.20;99.90;;;;;;5054347;28;20365;-91
2023/10/12 15:11:15;;;;;;;20.15;15.48;;;17.10;99.90;;;;;;5051797;28;20441;-88
2023/10/12 15:13:41;;;;;;;18.27;16.25;;;18.20;99.90;;;;;;5052828;28;20043;-88
2023/10/12 15:16:10;;;;;;;18.55;15.48;;;17.10;99.90;;;;;;5050274;28;20412;-88
2023/10/12 15:18:41;;;;;;;21.60;16.25;;;17.80;99.90;;;;;;5051078;28;20489;-89
2023/10/12 15:21:14;;;;;;;20.45;14.88;;;16.90;99.90;;;;;;5050644;28;20040;-89
2023/10/12 15:23:42;;;;;;;18.85;15.57;;;16.80;99.90;;;;;;5051902;28;20041;-89
2023/10/12 15:26:07;;;;;;;18.45;15.48;;;17.20;99.90;;;;;;5051724;28;20025;-89
2023/10/12 15:28:36;;;;;;;19.45;17.15;;;16.90;99.90;;;;;;5050468;28;20033;-88
2023/10/12 15:31:03;;;;;;;21.30;16.05;;;16.90;99.90;;;;;;5057391;28;20552;-89
2023/10/12 15:33:30;;;;;;;19.70;17.55;;;16.70;99.90;;;;;;5058469;28;20111;-88
2023/10/12 15:35:55;;;;;;;18.35;16.45;;;17.90;99.90;;;;;;5058588;28;20075;-90
2023/10/12 15:38:21;;;;;;;20.67;17.70;;;17.10;99.90;;;;;;5059262;28;20025;-86
2023/10/12 15:40:46;;;;;;;20.70;17.08;;;17.00;99.90;;;;;;5060291;28;20025;-89
2023/10/12 15:43:16;;;;;;;18.40;16.60;;;17.00;99.90;;;;;;5058557;28;20033;-87
2023/10/12 15:45:44;;;;;;;21.30;18.90;;;16.90;99.90;;;;;;5060044;28;20029;-91
2023/10/12 15:48:16;;;;;;;20.08;17.05;;;17.70;99.90;;;;;;5059699;28;20025;-91
2023/10/12 15:50:41;;;;;;;20.48;16.85;;;17.70;99.90;;;;;;5075550;28;20068;-89
2023/10/12 15:53:09;;;;;;;24.27;18.75;;;17.60;99.90;;;;;;5061392;28;20025;-92
2023/10/12 15:55:35;;;;;;;18.38;16.55;;;17.30;99.90;;;;;;5060954;28;20071;-90
2023/10/12 15:58:16;;;;;;;21.17;16.75;;;17.10;99.90;;;;;;5060205;28;20423;-89
2023/10/12 16:00:54;;;;;;;21.70;16.80;;;17.60;99.90;;;;;;5062940;28;20032;-91
2023/10/12 16:03:21;;;;;;;19.00;16.95;;;17.70;99.90;;;;;;5060354;28;20261;-90
2023/10/12 16:05:46;;;;;;;24.70;16.70;;;17.60;99.90;;;;;;5063186;28;20024;-91
2023/10/12 16:08:15;;;;;;;19.17;16.02;;;18.10;99.90;;;;;;5070270;28;20040;-91
2023/10/12 16:10:48;;;;;;;21.70;16.70;;;17.10;99.90;;;;;;5065333;28;20032;-89
2023/10/12 16:13:14;;;;;;;;;;;17.10;99.90;;;;;;5065988;28;20036;-92